Time;durP1;ratioP1;P1;durP2;ratioP2;P2;SDS_P1;SDS_P2;PMS_P1;PMS_P2;Temp;Humidity;BMP_temperature;BMP_pressure;BME280_temperature;BME280_humidity;BME280_pressure;Samples;Min_cycle;Max_cycle;Signal;HPM_P1;HPM_P2
2023/05/29 00:00:22;;;;;;;20.33;7.90;;;;;;;18.44;61.55;101256.19;5010572;28;20057;-60
2023/05/29 00:02:50;;;;;;;17.42;7.60;;;;;;;18.49;60.95;101255.94;4997420;28;20379;-60
2023/05/29 00:05:18;;;;;;;22.13;7.90;;;;;;;18.46;61.12;101256.63;5008925;28;20509;-60
2023/05/29 00:07:45;;;;;;;16.98;8.07;;;;;;;18.40;61.72;101248.84;5015571;28;20062;-61
2023/05/29 00:10:13;;;;;;;15.98;6.97;;;;;;;18.55;60.85;101253.72;5016273;28;20054;-60
2023/05/29 00:12:40;;;;;;;18.30;7.80;;;;;;;18.28;61.52;101252.47;5015217;28;20038;-60
2023/05/29 00:15:09;;;;;;;22.15;7.72;;;;;;;18.21;61.96;101252.25;5011809;28;20390;-60
2023/05/29 00:17:37;;;;;;;25.83;7.70;;;;;;;18.33;61.45;101260.59;5005135;28;20064;-61
2023/05/29 00:20:11;;;;;;;23.50;8.02;;;;;;;18.25;61.51;101255.97;5015780;28;20297;-61
2023/05/29 00:22:39;;;;;;;19.77;7.85;;;;;;;18.33;61.22;101262.56;5014156;28;20575;-60
2023/05/29 00:25:08;;;;;;;21.52;7.60;;;;;;;18.25;61.73;101260.72;5027060;28;20073;-60
2023/05/29 00:27:35;;;;;;;22.75;8.20;;;;;;;18.21;62.03;101266.19;4996880;28;20058;-59
2023/05/29 00:30:04;;;;;;;23.63;7.32;;;;;;;18.11;62.44;101266.69;5024653;28;20054;-60
2023/05/29 00:32:31;;;;;;;19.70;7.47;;;;;;;18.07;62.41;101262.16;4996308;28;20486;-61
2023/05/29 00:34:58;;;;;;;21.02;7.65;;;;;;;17.99;62.67;101264.69;5014334;28;20560;-60
2023/05/29 00:37:26;;;;;;;19.70;8.27;;;;;;;18.02;62.70;101262.38;5015531;28;20046;-59
2023/05/29 00:39:53;;;;;;;22.75;8.07;;;;;;;17.99;62.53;101258.34;5013377;28;20061;-60
2023/05/29 00:42:20;;;;;;;18.83;7.93;;;;;;;18.02;62.15;101265.16;5019877;28;20050;-60
2023/05/29 00:44:48;;;;;;;20.42;8.25;;;;;;;17.81;63.26;101254.16;5015890;28;20864;-60
2023/05/29 00:47:15;;;;;;;18.02;7.82;;;;;;;17.95;62.67;101254.63;5046870;28;20050;-60
2023/05/29 00:49:43;;;;;;;19.45;7.85;;;;;;;18.07;62.28;101256.56;5044601;28;20062;-60
2023/05/29 00:52:11;;;;;;;24.73;7.50;;;;;;;17.91;62.92;101248.94;5022388;28;20068;-60
2023/05/29 00:54:38;;;;;;;19.10;8.00;;;;;;;17.87;62.93;101247.16;4996805;28;20061;-60
2023/05/29 00:57:06;;;;;;;20.02;8.38;;;;;;;17.76;63.35;101246.03;4998321;28;20050;-58
2023/05/29 00:59:33;;;;;;;20.17;7.20;;;;;;;17.78;62.94;101244.50;5013756;28;20058;-60
2023/05/29 01:02:02;;;;;;;19.98;7.88;;;;;;;17.56;63.83;101253.34;5015045;28;20060;-59
2023/05/29 01:04:33;;;;;;;23.88;7.95;;;;;;;17.62;63.32;101246.38;5015517;28;20405;-61
2023/05/29 01:07:02;;;;;;;20.83;8.15;;;;;;;17.61;63.76;101246.72;5030102;28;20050;-61
2023/05/29 01:09:30;;;;;;;18.23;7.45;;;;;;;17.82;62.81;101250.19;5012381;28;20065;-61
2023/05/29 01:12:20;;;;;;;17.23;7.95;;;;;;;17.71;63.00;101244.28;5014151;28;20054;-60
2023/05/29 01:14:57;;;;;;;24.58;8.10;;;;;;;17.53;63.68;101262.41;5046849;28;20054;-60
2023/05/29 01:17:52;;;;;;;20.05;8.05;;;;;;;17.70;63.88;101244.63;5014873;28;20046;-59
2023/05/29 01:20:30;;;;;;;19.27;7.78;;;;;;;17.79;62.73;101245.34;5046692;28;20050;-60
2023/05/29 01:23:13;;;;;;;16.38;7.57;;;;;;;17.65;62.92;101247.66;5046027;28;20065;-61
2023/05/29 01:26:22;;;;;;;17.98;7.55;;;;;;;17.56;63.62;101252.50;5045772;28;20068;-61
2023/05/29 01:28:52;;;;;;;21.13;7.97;;;;;;;17.18;64.74;101257.53;4995650;28;20061;-59
2023/05/29 01:31:23;;;;;;;19.52;8.27;;;;;;;16.96;65.70;101250.41;5008729;28;20516;-60
2023/05/29 01:33:58;;;;;;;18.60;7.53;;;;;;;17.23;65.04;101255.34;5013592;28;20049;-60
2023/05/29 01:36:26;;;;;;;21.08;8.20;;;;;;;17.18;65.13;101254.75;5014283;28;20051;-60
2023/05/29 01:38:55;;;;;;;18.55;7.63;;;;;;;17.07;65.69;101250.78;5030117;28;20125;-61
2023/05/29 01:41:23;;;;;;;17.52;7.80;;;;;;;17.28;64.99;101257.91;5002992;28;20052;-60
2023/05/29 01:43:51;;;;;;;16.38;7.50;;;;;;;17.32;64.59;101258.84;4994021;28;20149;-59
2023/05/29 01:46:19;;;;;;;18.00;7.78;;;;;;;17.04;65.40;101266.19;5006007;28;20060;-59
2023/05/29 01:48:47;;;;;;;17.65;7.75;;;;;;;16.93;66.10;101269.78;5010807;28;20054;-60
2023/05/29 01:51:14;;;;;;;19.42;8.05;;;;;;;16.91;66.29;101247.84;5045007;28;20130;-60
2023/05/29 01:53:46;;;;;;;15.88;6.78;;;;;;;17.05;65.93;101248.34;5012273;28;20061;-60
2023/05/29 01:56:14;;;;;;;23.02;7.38;;;;;;;16.78;66.84;101269.25;5029712;28;20053;-60
2023/05/29 01:58:42;;;;;;;17.00;7.07;;;;;;;16.77;66.90;101264.81;5013505;28;20069;-60
2023/05/29 02:01:09;;;;;;;18.98;7.43;;;;;;;16.94;66.41;101254.69;5012860;28;20749;-59
2023/05/29 02:03:37;;;;;;;19.85;7.40;;;;;;;16.76;67.19;101242.91;5029159;28;20057;-60
2023/05/29 02:06:04;;;;;;;19.15;6.72;;;;;;;17.12;66.12;101242.22;5028227;28;20619;-61
2023/05/29 02:08:31;;;;;;;21.90;7.97;;;;;;;16.73;67.01;101246.38;5013647;28;20081;-59
2023/05/29 02:10:59;;;;;;;15.80;7.75;;;;;;;16.89;66.67;101255.72;5012592;28;20050;-59
2023/05/29 02:13:26;;;;;;;20.13;8.10;;;;;;;16.95;66.31;101257.13;5014291;28;20050;-59
2023/05/29 02:15:54;;;;;;;21.33;7.65;;;;;;;16.82;66.59;101247.91;5014376;28;20810;-61
2023/05/29 02:18:23;;;;;;;15.90;7.88;;;;;;;16.98;66.45;101252.84;5013489;28;20048;-60
2023/05/29 02:20:50;;;;;;;21.75;7.88;;;;;;;16.98;66.20;101250.88;5014154;28;20393;-60
2023/05/29 02:23:21;;;;;;;17.50;6.97;;;;;;;16.61;67.48;101258.28;5014541;28;20065;-60
2023/05/29 02:25:51;;;;;;;18.63;7.37;;;;;;;16.60;67.50;101250.25;5013642;28;20057;-60
2023/05/29 02:28:18;;;;;;;21.52;7.97;;;;;;;16.50;67.85;101248.72;5014159;28;20304;-62
2023/05/29 02:30:45;;;;;;;23.73;8.63;;;;;;;16.55;68.13;101244.91;5013659;28;20038;-60
2023/05/29 02:33:13;;;;;;;17.33;7.10;;;;;;;16.46;68.79;101256.09;5012155;28;20057;-60
2023/05/29 02:35:40;;;;;;;19.08;7.10;;;;;;;16.18;69.45;101254.97;5008440;28;20049;-60
2023/05/29 02:38:08;;;;;;;17.83;7.68;;;;;;;16.28;69.59;101267.69;5040819;28;20054;-60
2023/05/29 02:40:35;;;;;;;17.38;7.88;;;;;;;16.22;70.03;101252.34;5025400;28;20085;-59
2023/05/29 02:43:02;;;;;;;21.23;8.02;;;;;;;16.39;69.36;101263.31;5001633;28;20054;-60
2023/05/29 02:45:31;;;;;;;16.77;7.60;;;;;;;16.14;70.04;101254.03;5013221;28;20046;-60
2023/05/29 02:47:59;;;;;;;18.05;7.75;;;;;;;16.26;69.97;101261.63;4992229;28;20055;-60
2023/05/29 02:50:27;;;;;;;17.00;7.90;;;;;;;16.29;69.91;101253.44;5007129;28;20054;-60
2023/05/29 02:52:55;;;;;;;16.13;7.50;;;;;;;16.30;69.61;101263.38;5010926;28;20050;-61
2023/05/29 02:55:22;;;;;;;19.73;7.28;;;;;;;16.37;69.50;101271.22;5027415;28;20049;-60
2023/05/29 02:57:52;;;;;;;16.73;7.30;;;;;;;16.22;70.24;101264.28;5013452;28;20061;-60
2023/05/29 03:00:20;;;;;;;18.08;7.20;;;;;;;16.45;69.29;101267.53;5012544;28;20424;-60
2023/05/29 03:02:47;;;;;;;19.50;7.65;;;;;;;16.19;70.47;101264.13;5044924;28;20058;-59
2023/05/29 03:05:16;;;;;;;17.48;8.00;;;;;;;15.84;71.81;101274.66;5014762;28;20057;-59
2023/05/29 03:07:44;;;;;;;18.85;8.15;;;;;;;15.79;72.66;101278.41;5017312;28;20049;-60
2023/05/29 03:10:11;;;;;;;20.00;8.43;;;;;;;15.86;72.40;101277.91;5015586;28;20058;-60
2023/05/29 03:12:39;;;;;;;19.90;8.25;;;;;;;16.08;71.95;101271.22;5016086;28;20050;-61
2023/05/29 03:15:07;;;;;;;20.17;8.40;;;;;;;16.07;71.85;101269.63;5016011;28;20058;-60
2023/05/29 03:17:37;;;;;;;17.70;8.50;;;;;;;15.99;71.76;101292.72;5016548;28;20052;-60
2023/05/29 03:20:08;;;;;;;21.92;8.52;;;;;;;15.70;73.14;101274.91;5012650;28;20054;-65
2023/05/29 03:22:36;;;;;;;20.00;8.40;;;;;;;15.60;73.73;101285.56;5013089;28;20654;-63
2023/05/29 03:25:03;;;;;;;19.35;8.43;;;;;;;15.60;73.93;101291.13;5009157;28;20465;-62
2023/05/29 03:27:31;;;;;;;18.90;8.60;;;;;;;15.47;74.69;101290.19;5016922;28;20061;-59
2023/05/29 03:30:06;;;;;;;21.65;8.90;;;;;;;15.46;75.15;101293.28;5000313;28;20064;-58
2023/05/29 03:32:34;;;;;;;21.85;9.10;;;;;;;15.45;74.97;101292.47;5015302;28;20058;-60
2023/05/29 03:35:03;;;;;;;23.33;9.02;;;;;;;15.64;75.13;101292.06;5015428;28;20431;-61
2023/05/29 03:37:31;;;;;;;22.35;9.00;;;;;;;15.45;75.08;101303.56;5015532;28;20062;-60
2023/05/29 03:39:58;;;;;;;21.85;8.43;;;;;;;15.67;74.61;101296.97;5031085;28;20100;-60
2023/05/29 03:42:25;;;;;;;19.02;9.02;;;;;;;15.76;74.67;101289.38;5048192;28;20065;-60
2023/05/29 03:44:53;;;;;;;18.83;9.07;;;;;;;15.64;74.56;101292.88;5031736;28;20046;-60
2023/05/29 03:47:20;;;;;;;22.67;9.68;;;;;;;15.63;74.46;101293.22;5030807;28;20540;-60
2023/05/29 03:49:48;;;;;;;18.38;9.10;;;;;;;15.76;74.46;101297.72;5018541;28;20045;-60
2023/05/29 03:52:15;;;;;;;20.08;8.77;;;;;;;15.72;74.75;101297.59;5016233;28;20144;-59
2023/05/29 03:54:44;;;;;;;25.25;9.40;;;;;;;15.87;73.97;101307.31;5015870;28;20355;-60
2023/05/29 03:57:12;;;;;;;18.02;9.30;;;;;;;15.52;75.15;101314.97;5031102;28;20058;-60
2023/05/29 03:59:39;;;;;;;19.50;9.48;;;;;;;15.33;76.17;101311.75;5031470;28;20524;-60
2023/05/29 04:02:07;;;;;;;20.90;9.75;;;;;;;15.27;76.58;101307.50;5031789;28;20042;-60
2023/05/29 04:04:35;;;;;;;21.63;9.52;;;;;;;15.21;77.13;101321.88;5015848;28;20041;-60
2023/05/29 04:07:03;;;;;;;21.58;9.68;;;;;;;15.29;77.09;101319.09;5016581;28;20517;-59
2023/05/29 04:09:30;;;;;;;18.80;9.30;;;;;;;15.33;77.80;101314.53;5015052;28;20060;-61
2023/05/29 04:12:02;;;;;;;21.75;9.73;;;;;;;15.18;77.15;101322.56;5031404;28;20053;-60
2023/05/29 04:14:29;;;;;;;20.08;10.07;;;;;;;15.05;78.18;101329.91;5030733;28;20042;-59
2023/05/29 04:16:56;;;;;;;28.63;10.23;;;;;;;14.93;79.32;101342.81;5014832;28;20050;-60
2023/05/29 04:19:24;;;;;;;29.58;11.13;;;;;;;14.87;79.12;101333.03;5047015;28;20050;-59
2023/05/29 04:21:51;;;;;;;29.00;10.50;;;;;;;14.82;79.75;101336.78;5015805;28;20053;-60
2023/05/29 04:24:19;;;;;;;26.23;10.57;;;;;;;14.97;79.56;101343.81;4998269;28;20081;-60
2023/05/29 04:26:46;;;;;;;27.05;10.80;;;;;;;15.04;78.96;101336.63;4997909;28;20050;-60
2023/05/29 04:29:14;;;;;;;25.05;10.50;;;;;;;14.74;80.34;101343.16;5013888;28;20054;-60
2023/05/29 04:31:42;;;;;;;24.48;10.90;;;;;;;15.00;79.80;101355.06;4995093;28;20057;-59
2023/05/29 04:34:10;;;;;;;26.52;10.90;;;;;;;15.13;78.43;101359.59;5011350;28;20050;-59
2023/05/29 04:36:38;;;;;;;26.77;11.00;;;;;;;15.00;79.13;101355.06;5046655;28;20046;-59
2023/05/29 04:39:11;;;;;;;25.88;9.98;;;;;;;15.14;78.66;101358.47;5013161;28;20524;-60
2023/05/29 04:41:40;;;;;;;29.13;11.85;;;;;;;14.87;79.78;101367.13;5047563;28;20053;-61
2023/05/29 04:44:11;;;;;;;23.17;11.50;;;;;;;14.98;80.09;101356.50;4998893;28;20053;-60
2023/05/29 04:46:44;;;;;;;23.15;11.00;;;;;;;15.19;78.84;101368.56;5014287;28;20054;-60
2023/05/29 04:49:12;;;;;;;29.55;11.85;;;;;;;14.95;79.44;101382.16;5014140;28;20061;-60
2023/05/29 04:51:40;;;;;;;21.42;11.43;;;;;;;14.89;79.97;101375.16;5014338;28;20050;-60
2023/05/29 04:54:11;;;;;;;24.35;11.02;;;;;;;14.89;80.19;101381.47;5013942;28;20054;-59
2023/05/29 04:56:42;;;;;;;24.95;10.88;;;;;;;15.00;79.22;101380.03;5046901;28;20042;-59
2023/05/29 04:59:13;;;;;;;21.17;11.32;;;;;;;15.05;79.70;101382.63;5013601;28;20057;-60
2023/05/29 05:01:43;;;;;;;20.75;11.48;;;;;;;15.28;79.05;101384.09;5013798;28;20053;-60
2023/05/29 05:04:11;;;;;;;24.63;11.48;;;;;;;15.14;79.21;101382.63;5030045;28;20049;-61
2023/05/29 05:06:39;;;;;;;22.95;11.40;;;;;;;15.27;78.58;101387.19;4997212;28;20112;-60
2023/05/29 05:09:06;;;;;;;21.75;11.73;;;;;;;14.86;79.87;101379.38;5006695;28;20046;-61
2023/05/29 05:11:34;;;;;;;21.38;12.40;;;;;;;14.98;79.87;101385.09;5013665;28;20049;-60
2023/05/29 05:14:01;;;;;;;22.55;12.25;;;;;;;15.12;78.90;101396.00;4997395;28;20066;-60
2023/05/29 05:16:30;;;;;;;26.15;12.48;;;;;;;14.92;80.19;101386.41;5013325;28;20072;-60
2023/05/29 05:18:57;;;;;;;26.92;12.57;;;;;;;14.73;81.22;101380.34;5013147;28;20054;-60
2023/05/29 05:21:25;;;;;;;24.65;12.43;;;;;;;14.92;80.38;101383.63;5030032;28;20413;-61
2023/05/29 05:23:54;;;;;;;25.73;12.52;;;;;;;15.03;79.60;101400.75;5046305;28;20058;-60
2023/05/29 05:26:28;;;;;;;24.08;12.50;;;;;;;14.91;80.19;101395.84;5045261;28;20049;-59
2023/05/29 05:28:55;;;;;;;27.33;12.43;;;;;;;15.03;79.83;101384.91;5014282;28;20065;-60
2023/05/29 05:31:26;;;;;;;23.75;12.57;;;;;;;14.97;79.61;101393.72;5029875;28;20056;-60
2023/05/29 05:33:53;;;;;;;25.40;12.35;;;;;;;14.92;80.25;101396.69;5012851;28;20054;-60
2023/05/29 05:36:21;;;;;;;29.50;13.27;;;;;;;15.28;78.91;101397.97;5045690;28;20049;-60
2023/05/29 05:38:54;;;;;;;29.42;12.93;;;;;;;15.14;79.10;101399.28;5013333;28;20497;-60
2023/05/29 05:41:22;;;;;;;24.63;12.25;;;;;;;15.21;78.26;101397.66;5012798;28;20050;-60
2023/05/29 05:43:52;;;;;;;;;;;;;;;15.03;79.58;101406.31;5028469;28;20046;-61
2023/05/29 05:46:28;;;;;;;23.08;12.02;;;;;;;14.99;79.10;101402.56;5007676;28;19921;-61
2023/05/29 05:49:00;;;;;;;26.48;12.65;;;;;;;14.92;79.79;101408.59;5012188;28;20054;-60
2023/05/29 05:51:28;;;;;;;29.60;13.73;;;;;;;14.92;79.99;101416.91;4998079;28;20069;-60
2023/05/29 05:53:55;;;;;;;25.58;13.02;;;;;;;15.12;78.96;101412.66;5009212;28;20050;-61
2023/05/29 05:56:23;;;;;;;24.92;13.02;;;;;;;15.25;78.44;101412.50;5010777;28;20046;-59
2023/05/29 05:58:50;;;;;;;22.13;12.88;;;;;;;14.99;79.03;101420.03;5033498;28;20046;-61
2023/05/29 06:01:20;;;;;;;23.80;12.57;;;;;;;14.99;79.23;101419.19;5012639;28;20042;-61
2023/05/29 06:03:49;;;;;;;26.23;13.50;;;;;;;15.02;79.16;101419.38;4993947;28;20089;-60
2023/05/29 06:06:18;;;;;;;23.17;13.60;;;;;;;15.02;79.22;101415.75;5012844;28;20053;-60
2023/05/29 06:08:47;;;;;;;27.92;13.35;;;;;;;14.86;79.53;101429.31;5011115;28;20064;-60
2023/05/29 06:11:15;;;;;;;28.23;13.73;;;;;;;15.02;79.26;101418.53;5012429;28;20045;-60
2023/05/29 06:13:45;;;;;;;23.15;13.88;;;;;;;15.21;77.94;101411.53;5010221;28;20061;-59
2023/05/29 06:16:20;;;;;;;27.20;13.30;;;;;;;15.04;78.76;101417.09;4994829;28;20049;-60
2023/05/29 06:18:48;;;;;;;27.02;12.35;;;;;;;15.05;78.64;101424.25;4995024;28;20060;-60
2023/05/29 06:21:17;;;;;;;25.80;11.93;;;;;;;15.12;78.22;101419.03;5017937;28;20061;-58
2023/05/29 06:23:51;;;;;;;23.38;13.43;;;;;;;15.11;78.57;101427.69;4997548;28;20097;-61
2023/05/29 06:26:20;;;;;;;29.10;13.90;;;;;;;15.24;77.91;101433.06;5045192;28;20053;-59
2023/05/29 06:28:49;;;;;;;22.90;13.27;;;;;;;15.31;77.71;101429.78;4996046;28;20046;-61
2023/05/29 06:31:17;;;;;;;28.33;12.52;;;;;;;15.32;76.92;101435.03;5011409;28;20305;-60
2023/05/29 06:33:45;;;;;;;22.25;13.13;;;;;;;15.27;77.71;101432.41;5015317;28;20057;-61
2023/05/29 06:36:13;;;;;;;24.95;12.70;;;;;;;15.42;76.75;101431.94;4996136;28;20064;-61
2023/05/29 06:38:49;;;;;;;28.88;12.57;;;;;;;15.30;77.35;101447.59;5025330;28;20050;-60
2023/05/29 06:41:17;;;;;;;25.92;12.88;;;;;;;15.37;77.01;101436.81;5008391;28;20050;-59
2023/05/29 06:43:44;;;;;;;26.05;13.15;;;;;;;15.62;76.38;101445.13;5004846;28;20054;-60
2023/05/29 06:46:13;;;;;;;22.25;12.13;;;;;;;15.65;75.78;101447.28;4999533;28;20168;-61
2023/05/29 06:48:41;;;;;;;26.67;12.30;;;;;;;15.62;75.41;101442.34;5013402;28;20054;-59
2023/05/29 06:51:11;;;;;;;30.42;12.00;;;;;;;15.80;74.96;101437.59;4994644;28;20064;-61
2023/05/29 06:53:54;;;;;;;21.27;12.13;;;;;;;15.77;74.78;101435.47;5013133;28;20049;-59
2023/05/29 06:56:23;;;;;;;21.92;12.15;;;;;;;15.64;75.23;101447.59;5011577;28;20045;-60
2023/05/29 06:58:51;;;;;;;31.70;12.98;;;;;;;15.27;76.24;101443.50;5028146;28;20066;-59
2023/05/29 07:01:20;;;;;;;22.73;12.02;;;;;;;15.53;75.79;101452.66;5011373;28;20053;-61
2023/05/29 07:03:56;;;;;;;23.50;12.60;;;;;;;15.65;75.26;101449.22;4998349;28;20050;-60
2023/05/29 07:06:23;;;;;;;26.00;13.57;;;;;;;16.17;74.40;101444.31;5008179;28;20064;-60
2023/05/29 07:08:51;;;;;;;30.05;13.20;;;;;;;16.21;73.00;101443.34;5013816;28;20048;-60
2023/05/29 07:11:18;;;;;;;19.30;11.80;;;;;;;16.13;72.42;101444.19;5009027;28;20046;-62
2023/05/29 07:13:47;;;;;;;19.45;11.55;;;;;;;16.45;72.20;101440.78;5006526;28;20049;-61
2023/05/29 07:16:14;;;;;;;23.20;11.50;;;;;;;16.54;72.20;101432.41;5034236;28;20069;-62
2023/05/29 07:18:57;;;;;;;24.73;11.63;;;;;;;16.65;71.90;101444.75;5037607;28;20050;-62
2023/05/29 07:21:26;;;;;;;23.58;11.52;;;;;;;16.74;70.79;101438.00;5014691;28;20049;-64
2023/05/29 07:23:54;;;;;;;24.52;11.90;;;;;;;16.63;70.67;101441.53;5010578;28;20056;-62
2023/05/29 07:26:22;;;;;;;21.13;10.82;;;;;;;16.83;70.13;101444.34;5009461;28;20045;-63
2023/05/29 07:28:50;;;;;;;19.33;10.85;;;;;;;16.95;69.16;101448.31;5008340;28;20057;-62
2023/05/29 07:31:18;;;;;;;22.50;11.73;;;;;;;17.36;67.87;101445.56;5006850;28;20069;-63
2023/05/29 07:33:48;;;;;;;18.95;11.38;;;;;;;17.82;66.53;101448.88;4999466;28;20048;-62
2023/05/29 07:36:19;;;;;;;19.42;10.07;;;;;;;18.20;64.94;101445.03;5019460;28;20046;-61
2023/05/29 07:38:48;;;;;;;17.98;10.48;;;;;;;18.36;63.84;101445.97;4991873;28;20049;-62
2023/05/29 07:41:18;;;;;;;24.17;10.88;;;;;;;18.43;62.97;101451.81;5008140;28;20054;-63
2023/05/29 07:43:52;;;;;;;22.58;11.38;;;;;;;17.87;64.33;101454.25;5008559;28;20056;-62
2023/05/29 07:46:20;;;;;;;19.88;11.38;;;;;;;17.42;66.17;101450.56;5003389;28;20038;-61
2023/05/29 07:48:53;;;;;;;19.42;10.85;;;;;;;17.59;65.21;101447.66;5001470;28;20050;-62
2023/05/29 07:51:21;;;;;;;22.63;10.95;;;;;;;18.04;64.51;101458.00;5009615;28;20057;-62
2023/05/29 07:53:50;;;;;;;23.75;11.40;;;;;;;18.13;63.19;101440.03;5011709;28;20148;-64
2023/05/29 07:56:18;;;;;;;20.88;11.15;;;;;;;18.17;63.17;101448.47;4993133;28;20046;-64
2023/05/29 07:58:47;;;;;;;30.77;11.15;;;;;;;17.99;62.92;101447.91;5037370;28;20041;-63
2023/05/29 08:01:15;;;;;;;18.80;10.82;;;;;;;18.01;63.67;101450.34;5022319;28;20926;-62
2023/05/29 08:03:43;;;;;;;19.58;10.60;;;;;;;17.84;63.64;101441.00;5007305;28;20054;-63
2023/05/29 08:06:20;;;;;;;19.50;10.15;;;;;;;18.38;62.02;101441.66;5025563;28;20042;-62
2023/05/29 08:08:48;;;;;;;18.63;10.32;;;;;;;18.54;61.44;101437.03;5035127;28;20058;-62
2023/05/29 08:11:19;;;;;;;25.05;11.90;;;;;;;18.61;61.52;101433.66;5015252;28;20064;-61
2023/05/29 08:13:47;;;;;;;25.27;10.23;;;;;;;18.90;60.09;101444.56;5000072;28;20306;-62
2023/05/29 08:16:16;;;;;;;19.42;11.13;;;;;;;18.03;63.06;101451.59;5045063;28;20049;-62
2023/05/29 08:18:44;;;;;;;31.08;17.02;;;;;;;18.09;63.22;101441.06;5010171;28;20061;-61
2023/05/29 08:21:12;;;;;;;42.22;26.92;;;;;;;18.19;63.10;101438.63;5008175;28;20045;-63
2023/05/29 08:23:39;;;;;;;24.02;17.13;;;;;;;18.42;62.14;101437.06;5027335;28;20054;-62
2023/05/29 08:26:07;;;;;;;18.15;12.75;;;;;;;18.30;62.44;101437.03;5015635;28;20054;-61
2023/05/29 08:28:34;;;;;;;21.25;13.38;;;;;;;18.28;62.73;101436.53;5013691;28;20053;-60
2023/05/29 08:31:02;;;;;;;20.02;11.00;;;;;;;18.25;62.71;101440.03;5009983;28;20065;-62
2023/05/29 08:33:30;;;;;;;21.50;12.25;;;;;;;18.04;63.56;101435.69;5009542;28;20058;-62
2023/05/29 08:35:58;;;;;;;22.95;10.80;;;;;;;18.03;63.56;101448.81;5011478;28;20054;-62
2023/05/29 08:38:26;;;;;;;23.20;11.60;;;;;;;18.04;63.72;101444.06;5010958;28;20046;-62
2023/05/29 08:40:54;;;;;;;19.50;12.23;;;;;;;18.09;63.29;101447.44;5013935;28;20399;-61
2023/05/29 08:43:22;;;;;;;21.42;11.50;;;;;;;18.35;63.44;101456.31;5009746;28;20054;-61
2023/05/29 08:45:53;;;;;;;20.02;10.88;;;;;;;17.94;64.17;101450.88;5010969;28;20060;-62
2023/05/29 08:48:32;;;;;;;17.73;11.10;;;;;;;17.87;64.16;101448.66;5011161;28;20045;-62
2023/05/29 08:51:02;;;;;;;22.83;11.17;;;;;;;17.67;65.56;101443.97;5015709;28;20069;-61
2023/05/29 08:53:31;;;;;;;19.80;11.32;;;;;;;18.11;64.65;101442.34;5008687;28;20373;-62
2023/05/29 08:55:59;;;;;;;18.80;11.13;;;;;;;18.50;63.18;101443.66;5011283;28;20049;-62
2023/05/29 08:58:27;;;;;;;19.80;11.73;;;;;;;18.54;62.44;101447.38;5015711;28;20045;-63
2023/05/29 09:00:56;;;;;;;16.90;10.73;;;;;;;18.09;64.08;101444.66;5009589;28;20049;-63
2023/05/29 09:03:24;;;;;;;14.25;10.43;;;;;;;18.55;63.43;101438.66;5007172;28;20041;-62
2023/05/29 09:05:52;;;;;;;23.52;12.00;;;;;;;18.37;62.08;101455.97;5014688;28;20417;-61
2023/05/29 09:08:20;;;;;;;16.10;10.40;;;;;;;18.11;64.04;101442.34;5008013;28;20057;-62
2023/05/29 09:10:47;;;;;;;17.88;10.23;;;;;;;18.52;62.16;101438.53;5018057;28;20056;-62
2023/05/29 09:13:14;;;;;;;22.45;10.70;;;;;;;18.68;61.53;101450.63;5012731;28;20053;-63
2023/05/29 09:15:45;;;;;;;15.75;9.90;;;;;;;18.61;61.92;101444.81;5011000;28;20046;-62
2023/05/29 09:18:13;;;;;;;18.05;11.18;;;;;;;18.49;61.88;101445.66;5025063;28;20425;-63
2023/05/29 09:20:40;;;;;;;17.65;10.05;;;;;;;18.80;61.52;101451.44;5010674;28;20056;-61
2023/05/29 09:23:09;;;;;;;18.88;10.55;;;;;;;18.91;60.53;101448.97;5015831;28;20053;-62
2023/05/29 09:25:42;;;;;;;18.38;10.32;;;;;;;18.91;60.39;101448.97;5012063;28;20046;-63
2023/05/29 09:28:10;;;;;;;15.75;9.52;;;;;;;19.11;59.33;101448.00;5007826;28;20053;-61
2023/05/29 09:30:48;;;;;;;23.80;10.63;;;;;;;18.97;59.71;101458.72;5009088;28;20045;-61
2023/05/29 09:33:16;;;;;;;17.13;10.68;;;;;;;18.62;60.99;101450.06;5007396;28;20736;-62
2023/05/29 09:35:46;;;;;;;18.48;10.70;;;;;;;18.90;60.81;101450.97;5011111;28;20634;-62
2023/05/29 09:38:18;;;;;;;22.88;10.35;;;;;;;19.26;60.37;101452.03;5021674;28;20050;-62
2023/05/29 09:41:05;;;;;;;18.67;10.65;;;;;;;19.35;59.71;101452.75;5042312;28;20064;-61
2023/05/29 09:43:34;;;;;;;23.10;11.70;;;;;;;19.08;59.85;101455.13;5036363;28;20061;-63
2023/05/29 09:46:02;;;;;;;19.80;11.23;;;;;;;19.00;59.94;101444.88;5008862;28;20489;-62
2023/05/29 09:48:30;;;;;;;14.57;11.02;;;;;;;18.94;60.28;101448.28;4994975;28;20049;-62
2023/05/29 09:50:58;;;;;;;29.58;12.13;;;;;;;18.87;61.05;101439.69;5012497;28;20493;-61
2023/05/29 09:53:28;;;;;;;19.80;11.65;;;;;;;18.99;60.55;101440.47;5034729;28;20049;-62
2023/05/29 09:55:57;;;;;;;23.20;12.85;;;;;;;18.85;61.17;101442.00;5008082;28;20046;-62
2023/05/29 09:58:28;;;;;;;19.10;11.35;;;;;;;18.98;60.62;101440.81;5024985;28;20060;-62
2023/05/29 10:00:57;;;;;;;19.98;11.18;;;;;;;19.31;59.79;101437.84;4999946;28;20053;-61
2023/05/29 10:03:25;;;;;;;16.85;11.63;;;;;;;19.48;58.75;101443.13;5003247;28;20083;-62
2023/05/29 10:05:58;;;;;;;19.95;12.43;;;;;;;19.46;58.94;101437.91;5005234;28;20042;-62
2023/05/29 10:08:25;;;;;;;18.65;12.27;;;;;;;19.38;59.36;101438.06;5006219;28;20770;-64
2023/05/29 10:11:09;;;;;;;21.25;13.30;;;;;;;19.51;58.58;101440.44;4972080;28;20422;-64
2023/05/29 10:13:38;;;;;;;18.83;12.65;;;;;;;19.33;58.62;101441.09;5007364;28;20049;-62
2023/05/29 10:16:12;;;;;;;19.63;12.32;;;;;;;19.19;59.65;101440.66;5018662;28;20054;-62
2023/05/29 10:18:45;;;;;;;18.80;12.30;;;;;;;19.65;58.92;101442.84;5005293;28;20449;-62
2023/05/29 10:21:14;;;;;;;20.80;12.82;;;;;;;19.62;58.29;101435.16;5014151;28;20053;-63
2023/05/29 10:23:49;;;;;;;21.48;13.00;;;;;;;19.53;58.46;101449.28;4990995;28;20069;-63
2023/05/29 10:26:22;;;;;;;18.42;13.38;;;;;;;19.35;59.03;101430.41;5010507;28;20045;-61
2023/05/29 10:29:05;;;;;;;20.75;13.02;;;;;;;19.59;58.69;101433.91;5005314;28;20037;-61
2023/05/29 10:32:05;;;;;;;17.92;12.15;;;;;;;19.84;57.65;101415.81;5019358;28;20068;-61
2023/05/29 10:34:39;;;;;;;19.77;12.43;;;;;;;19.89;57.04;101425.94;4972531;28;20054;-62
2023/05/29 10:37:22;;;;;;;23.70;14.05;;;;;;;19.86;57.16;101421.84;5005344;28;20052;-60
2023/05/29 10:39:50;;;;;;;19.85;12.93;;;;;;;19.86;57.47;101419.06;5003936;28;20049;-58
2023/05/29 10:42:39;;;;;;;21.33;14.23;;;;;;;19.86;57.17;101424.66;5006802;28;20050;-60
2023/05/29 10:45:06;;;;;;;22.17;13.45;;;;;;;19.53;58.26;101421.34;5009914;28;20072;-58
2023/05/29 10:47:34;;;;;;;20.58;13.20;;;;;;;19.71;57.81;101428.25;4987796;28;20057;-61
2023/05/29 10:50:03;;;;;;;19.77;12.68;;;;;;;19.90;57.28;101424.75;5009958;28;20062;-61
2023/05/29 10:52:31;;;;;;;18.75;12.68;;;;;;;20.06;56.70;101420.00;5012457;28;20054;-63
2023/05/29 10:55:00;;;;;;;25.08;12.93;;;;;;;20.00;57.06;101418.63;5011547;28;20065;-62
2023/05/29 10:57:28;;;;;;;17.90;12.02;;;;;;;20.05;57.09;101415.53;5006701;28;20050;-61
2023/05/29 11:00:04;;;;;;;20.05;11.88;;;;;;;20.22;56.31;101420.84;5011827;28;20678;-61
2023/05/29 11:02:31;;;;;;;17.73;11.88;;;;;;;20.17;56.23;101406.31;5010929;28;20046;-60
2023/05/29 11:05:07;;;;;;;23.83;12.32;;;;;;;20.24;55.84;101412.91;5008105;28;20053;-62
2023/05/29 11:07:35;;;;;;;19.30;10.95;;;;;;;20.35;56.11;101419.56;5007783;28;20050;-62
2023/05/29 11:10:13;;;;;;;19.30;12.10;;;;;;;20.32;55.67;101409.09;5009617;28;20054;-61
2023/05/29 11:12:58;;;;;;;19.30;12.93;;;;;;;20.17;56.55;101418.31;5010632;28;20046;-61
2023/05/29 11:15:26;;;;;;;19.92;11.60;;;;;;;20.09;56.82;101422.88;4990971;28;20058;-61
2023/05/29 11:17:55;;;;;;;18.98;11.52;;;;;;;20.24;56.18;101406.50;5019146;28;20061;-60
2023/05/29 11:20:37;;;;;;;20.52;11.50;;;;;;;20.28;56.17;101410.16;5003455;28;20058;-60
2023/05/29 11:23:08;;;;;;;19.52;11.32;;;;;;;20.33;56.32;101404.31;5005461;28;20054;-61